Time;durP1;ratioP1;P1;durP2;ratioP2;P2;SDS_P1;SDS_P2;PMS_P1;PMS_P2;Temp;Humidity;BMP_temperature;BMP_pressure;BME280_temperature;BME280_humidity;BME280_pressure;Samples;Min_cycle;Max_cycle;Signal;HPM_P1;HPM_P2
2023/07/24 00:00:53;;;;;;;16.75;10.52;;;21.80;99.90;;;;;;5003229;28;20045;-71
2023/07/24 00:03:19;;;;;;;17.85;11.30;;;21.80;99.90;;;;;;5006094;28;20111;-71
2023/07/24 00:05:44;;;;;;;23.27;12.70;;;21.80;99.90;;;;;;5004511;28;20064;-72
2023/07/24 00:08:10;;;;;;;21.48;12.05;;;21.70;99.90;;;;;;5004416;28;20430;-71
2023/07/24 00:10:36;;;;;;;15.30;9.00;;;21.70;99.90;;;;;;5010071;28;20033;-71
2023/07/24 00:13:03;;;;;;;16.45;9.18;;;21.50;99.90;;;;;;5003813;28;20029;-71
2023/07/24 00:15:28;;;;;;;13.02;9.18;;;21.40;99.90;;;;;;5010954;28;20033;-71
2023/07/24 00:17:54;;;;;;;18.73;9.52;;;21.50;99.90;;;;;;5002617;28;20037;-71
2023/07/24 00:20:20;;;;;;;20.38;11.40;;;21.60;99.90;;;;;;5008018;28;20050;-71
2023/07/24 00:22:45;;;;;;;16.10;10.30;;;21.40;99.90;;;;;;5007486;28;20038;-71
2023/07/24 00:25:11;;;;;;;15.98;10.15;;;21.50;99.90;;;;;;5005929;28;20398;-71
2023/07/24 00:27:37;;;;;;;17.58;10.85;;;21.50;99.90;;;;;;5009615;28;20042;-71
2023/07/24 00:30:03;;;;;;;17.88;11.02;;;21.50;99.90;;;;;;4997540;28;20030;-71
2023/07/24 00:32:28;;;;;;;20.40;12.50;;;21.50;99.90;;;;;;5002796;28;20040;-71
2023/07/24 00:34:54;;;;;;;19.98;11.82;;;21.50;99.90;;;;;;5008415;28;20030;-71
2023/07/24 00:37:19;;;;;;;19.73;10.90;;;21.40;99.90;;;;;;5001606;28;20042;-71
2023/07/24 00:39:45;;;;;;;14.90;9.75;;;21.50;99.90;;;;;;5003090;28;20424;-71
2023/07/24 00:42:11;;;;;;;15.98;9.30;;;21.60;99.90;;;;;;5003972;28;20723;-71
2023/07/24 00:44:37;;;;;;;14.93;9.30;;;21.70;99.90;;;;;;5005994;28;20049;-71
2023/07/24 00:47:03;;;;;;;15.50;9.25;;;21.70;99.90;;;;;;5010970;28;20060;-71
2023/07/24 00:49:29;;;;;;;15.00;9.35;;;21.70;99.90;;;;;;5002010;28;20022;-71
2023/07/24 00:51:55;;;;;;;16.25;8.77;;;21.60;99.90;;;;;;5002714;28;20022;-71
2023/07/24 00:54:22;;;;;;;14.27;8.82;;;21.70;99.90;;;;;;5006247;28;20030;-71
2023/07/24 00:56:47;;;;;;;13.43;8.88;;;21.80;99.90;;;;;;5009743;28;20030;-71
2023/07/24 00:59:15;;;;;;;16.63;9.45;;;21.60;99.90;;;;;;4999555;28;20026;-72
2023/07/24 01:01:41;;;;;;;16.13;10.35;;;21.50;99.90;;;;;;5006894;28;20029;-71
2023/07/24 01:04:07;;;;;;;13.50;9.05;;;21.40;99.90;;;;;;5001047;28;20113;-71
2023/07/24 01:06:33;;;;;;;15.73;9.50;;;21.30;99.90;;;;;;5005997;28;20104;-71
2023/07/24 01:08:58;;;;;;;15.15;9.07;;;21.30;99.90;;;;;;5001812;28;20544;-71
2023/07/24 01:11:29;;;;;;;15.88;10.02;;;21.20;99.90;;;;;;5002932;28;23299;-71
2023/07/24 01:14:13;;;;;;;16.88;9.75;;;21.10;99.90;;;;;;5005895;28;20029;-71
2023/07/24 01:16:44;;;;;;;20.02;9.10;;;21.10;99.90;;;;;;5008375;28;20037;-72
2023/07/24 01:19:20;;;;;;;16.38;9.43;;;21.10;99.90;;;;;;5000490;28;20029;-71
2023/07/24 01:22:29;;;;;;;18.42;10.13;;;21.10;99.90;;;;;;5007729;28;20101;-71
2023/07/24 01:25:23;;;;;;;14.73;8.98;;;21.10;99.90;;;;;;4986559;28;20459;-71
2023/07/24 01:27:49;;;;;;;18.83;10.18;;;21.20;99.90;;;;;;5001779;28;20104;-72
2023/07/24 01:30:17;;;;;;;13.77;9.57;;;21.20;99.90;;;;;;5008256;28;20474;-71
2023/07/24 01:32:43;;;;;;;16.70;9.65;;;21.20;99.90;;;;;;4999460;28;20472;-72
2023/07/24 01:35:09;;;;;;;14.23;8.50;;;21.20;99.90;;;;;;5002742;28;20045;-72
2023/07/24 01:37:37;;;;;;;16.50;9.30;;;21.20;99.90;;;;;;5002724;28;20555;-71
2023/07/24 01:40:03;;;;;;;16.38;9.60;;;21.20;99.90;;;;;;5005061;28;20033;-71
2023/07/24 01:42:30;;;;;;;15.43;8.70;;;21.20;99.90;;;;;;5005069;28;20044;-72
2023/07/24 01:44:55;;;;;;;17.15;10.15;;;21.30;99.90;;;;;;5004911;28;20030;-72
2023/07/24 01:47:22;;;;;;;17.17;9.68;;;21.30;99.90;;;;;;5000020;28;20081;-71
2023/07/24 01:49:47;;;;;;;15.63;9.00;;;21.20;99.90;;;;;;5003988;28;20029;-72
2023/07/24 01:52:14;;;;;;;15.57;9.05;;;21.10;99.90;;;;;;5005605;28;20036;-71
2023/07/24 01:54:39;;;;;;;14.63;8.63;;;21.00;99.90;;;;;;5003961;28;20022;-72
2023/07/24 01:57:05;;;;;;;17.60;11.20;;;21.00;99.90;;;;;;5003826;28;20116;-71
2023/07/24 01:59:31;;;;;;;16.90;9.98;;;20.90;99.90;;;;;;5000793;28;20478;-71
2023/07/24 02:01:56;;;;;;;15.18;9.60;;;20.90;99.90;;;;;;4986117;28;20112;-71
2023/07/24 02:04:22;;;;;;;15.35;8.90;;;20.80;99.90;;;;;;5005828;28;20389;-72
2023/07/24 02:06:51;;;;;;;14.93;8.95;;;20.80;99.90;;;;;;5003952;28;20033;-72
2023/07/24 02:09:18;;;;;;;15.38;9.70;;;20.90;99.90;;;;;;5003251;28;20036;-71
2023/07/24 02:11:44;;;;;;;19.00;9.85;;;20.70;99.90;;;;;;5000343;28;20117;-71
2023/07/24 02:14:11;;;;;;;23.05;9.05;;;20.60;99.90;;;;;;5005601;28;20552;-71
2023/07/24 02:16:37;;;;;;;15.65;9.55;;;20.60;99.90;;;;;;5002174;28;20058;-72
2023/07/24 02:19:03;;;;;;;14.23;8.73;;;20.70;99.90;;;;;;5001793;28;20065;-71
2023/07/24 02:21:28;;;;;;;16.15;9.93;;;20.60;99.90;;;;;;5005115;28;20091;-71
2023/07/24 02:23:54;;;;;;;15.27;8.90;;;20.70;99.90;;;;;;5001557;28;20029;-72
2023/07/24 02:26:20;;;;;;;15.68;9.68;;;20.90;99.90;;;;;;5005834;28;20495;-71
2023/07/24 02:28:45;;;;;;;17.60;10.20;;;21.00;99.90;;;;;;5005578;28;20044;-72
2023/07/24 02:31:11;;;;;;;15.93;9.38;;;21.10;99.90;;;;;;5004546;28;20109;-71
2023/07/24 02:33:37;;;;;;;20.88;9.68;;;21.20;99.90;;;;;;5004205;28;20443;-71
2023/07/24 02:36:03;;;;;;;19.55;10.88;;;21.20;99.90;;;;;;5008139;28;20153;-71
2023/07/24 02:38:29;;;;;;;16.38;10.45;;;21.10;99.90;;;;;;5007894;28;20052;-71
2023/07/24 02:40:54;;;;;;;16.23;9.60;;;21.00;99.90;;;;;;5004434;28;20060;-71
2023/07/24 02:43:20;;;;;;;16.42;9.82;;;20.90;99.90;;;;;;5002488;28;20097;-72
2023/07/24 02:45:46;;;;;;;15.40;9.80;;;20.80;99.90;;;;;;5002510;28;20457;-71
2023/07/24 02:48:11;;;;;;;15.55;9.70;;;20.60;99.90;;;;;;4999953;28;20134;-72
2023/07/24 02:50:37;;;;;;;17.08;9.20;;;20.60;99.90;;;;;;5002643;28;20026;-71
2023/07/24 02:53:03;;;;;;;16.50;10.30;;;20.60;99.90;;;;;;5009585;28;20061;-72
2023/07/24 02:55:28;;;;;;;15.73;9.90;;;20.50;99.90;;;;;;5001817;28;20117;-72
2023/07/24 02:57:54;;;;;;;16.23;8.98;;;20.50;99.90;;;;;;5007865;28;20391;-72
2023/07/24 03:00:20;;;;;;;13.70;9.10;;;20.50;99.90;;;;;;5002200;28;20034;-73
2023/07/24 03:02:45;;;;;;;16.90;9.77;;;20.50;99.90;;;;;;5005352;28;20041;-73
2023/07/24 03:05:11;;;;;;;16.15;9.80;;;20.60;99.90;;;;;;5006083;28;20044;-72
2023/07/24 03:07:37;;;;;;;15.90;9.75;;;20.50;99.90;;;;;;5005779;28;20042;-72
2023/07/24 03:10:03;;;;;;;17.90;10.30;;;20.60;99.90;;;;;;5006146;28;20026;-72
2023/07/24 03:12:29;;;;;;;17.55;10.15;;;20.70;99.90;;;;;;4997483;28;20025;-73
2023/07/24 03:14:54;;;;;;;17.38;9.88;;;20.60;99.90;;;;;;5002739;28;20034;-72
2023/07/24 03:17:21;;;;;;;22.35;10.80;;;20.60;99.90;;;;;;5003622;28;20026;-72
2023/07/24 03:19:49;;;;;;;18.48;10.18;;;20.70;99.90;;;;;;5000527;28;20096;-72
2023/07/24 03:22:14;;;;;;;15.02;8.82;;;20.80;99.90;;;;;;5002878;28;20440;-73
2023/07/24 03:24:40;;;;;;;15.25;9.45;;;20.90;99.90;;;;;;5007953;28;20033;-73
2023/07/24 03:27:06;;;;;;;17.08;10.05;;;20.90;99.90;;;;;;5002284;28;20084;-72
2023/07/24 03:29:32;;;;;;;21.95;10.15;;;20.90;99.90;;;;;;4999452;28;20061;-72
2023/07/24 03:31:58;;;;;;;16.52;9.82;;;21.00;99.90;;;;;;5006932;28;20082;-72
2023/07/24 03:34:23;;;;;;;20.83;9.75;;;21.00;99.90;;;;;;5001427;28;20030;-72
2023/07/24 03:36:49;;;;;;;17.63;10.45;;;20.80;99.90;;;;;;5001161;28;20476;-72
2023/07/24 03:39:15;;;;;;;16.58;10.05;;;20.90;99.90;;;;;;4999001;28;20046;-72
2023/07/24 03:41:42;;;;;;;18.00;10.32;;;20.80;99.90;;;;;;5003886;28;20025;-72
2023/07/24 03:44:08;;;;;;;15.68;9.50;;;20.80;99.90;;;;;;4996380;28;20038;-72
2023/07/24 03:46:34;;;;;;;17.23;10.60;;;20.90;99.90;;;;;;4997058;28;20044;-72
2023/07/24 03:49:00;;;;;;;14.02;9.07;;;20.80;99.90;;;;;;5004564;28;20581;-72
2023/07/24 03:51:26;;;;;;;18.98;10.88;;;20.50;99.90;;;;;;5004520;28;20026;-72
2023/07/24 03:53:51;;;;;;;15.55;10.07;;;20.20;99.90;;;;;;4999531;28;20034;-72
2023/07/24 03:56:17;;;;;;;16.30;9.73;;;20.30;99.90;;;;;;5002176;28;20465;-72
2023/07/24 03:58:43;;;;;;;16.35;10.95;;;20.40;99.90;;;;;;5003822;28;20531;-72
2023/07/24 04:01:09;;;;;;;19.20;10.93;;;20.60;99.90;;;;;;5000439;28;20038;-72
2023/07/24 04:03:35;;;;;;;15.07;9.63;;;20.60;99.90;;;;;;4999804;28;20104;-72
2023/07/24 04:06:01;;;;;;;18.10;10.45;;;20.70;99.90;;;;;;4998668;28;20040;-72
2023/07/24 04:08:27;;;;;;;18.45;10.10;;;20.80;99.90;;;;;;4998441;28;20851;-72
2023/07/24 04:10:53;;;;;;;17.77;9.60;;;20.80;99.90;;;;;;4997040;28;20029;-72
2023/07/24 04:13:18;;;;;;;15.45;9.55;;;20.80;99.90;;;;;;5002817;28;20080;-72
2023/07/24 04:15:44;;;;;;;16.90;10.25;;;20.90;99.90;;;;;;5004336;28;20041;-72
2023/07/24 04:18:10;;;;;;;18.15;10.15;;;20.80;99.90;;;;;;5000111;28;20122;-72
2023/07/24 04:20:36;;;;;;;16.55;10.00;;;20.60;99.90;;;;;;4999007;28;20042;-72
2023/07/24 04:23:02;;;;;;;17.60;10.95;;;20.60;99.90;;;;;;4997572;28;20109;-72
2023/07/24 04:25:27;;;;;;;16.65;10.05;;;20.50;99.90;;;;;;5000132;28;20524;-72
2023/07/24 04:27:53;;;;;;;16.40;10.07;;;20.50;99.90;;;;;;5001256;28;20419;-72
2023/07/24 04:30:19;;;;;;;14.75;8.90;;;20.40;99.90;;;;;;5003315;28;20105;-73
2023/07/24 04:32:46;;;;;;;16.58;10.05;;;20.50;99.90;;;;;;5003741;28;20476;-72
2023/07/24 04:35:11;;;;;;;17.42;10.05;;;20.50;99.90;;;;;;5002919;28;20034;-72
2023/07/24 04:37:37;;;;;;;16.27;9.60;;;20.60;99.90;;;;;;5001586;28;20084;-72
2023/07/24 04:40:03;;;;;;;17.85;10.90;;;20.70;99.90;;;;;;5001885;28;20021;-73
2023/07/24 04:42:29;;;;;;;18.33;10.10;;;20.80;99.90;;;;;;5003313;28;20468;-72
2023/07/24 04:44:54;;;;;;;16.50;9.25;;;20.70;99.90;;;;;;4998386;28;20023;-72
2023/07/24 04:47:20;;;;;;;16.25;10.95;;;20.70;99.90;;;;;;5005912;28;20069;-72
2023/07/24 04:49:46;;;;;;;17.85;10.70;;;20.80;99.90;;;;;;5000003;28;20054;-72
2023/07/24 04:52:11;;;;;;;13.88;9.70;;;20.80;99.90;;;;;;4997370;28;20655;-73
2023/07/24 04:54:37;;;;;;;17.38;10.27;;;20.80;99.90;;;;;;4997139;28;20408;-72
2023/07/24 04:57:03;;;;;;;16.25;11.10;;;20.80;99.90;;;;;;4999037;28;20059;-72
2023/07/24 04:59:28;;;;;;;19.45;10.25;;;20.80;99.90;;;;;;5006512;28;20034;-72
2023/07/24 05:01:54;;;;;;;16.70;10.50;;;20.90;99.90;;;;;;5003362;28;20204;-72
2023/07/24 05:04:20;;;;;;;15.23;9.68;;;21.00;99.90;;;;;;4999576;28;20018;-72
2023/07/24 05:06:45;;;;;;;17.23;10.55;;;21.00;99.90;;;;;;4997791;28;20502;-72
2023/07/24 05:09:11;;;;;;;15.68;10.60;;;21.10;99.90;;;;;;5000075;28;20034;-72
2023/07/24 05:11:37;;;;;;;16.38;10.20;;;21.00;99.90;;;;;;5001378;28;20157;-73
2023/07/24 05:14:02;;;;;;;14.55;9.57;;;21.00;99.90;;;;;;5005619;28;20108;-72
2023/07/24 05:16:28;;;;;;;16.95;10.18;;;20.90;99.90;;;;;;5004565;28;20558;-72
2023/07/24 05:18:54;;;;;;;14.30;9.45;;;21.00;99.90;;;;;;5001071;28;20103;-72
2023/07/24 05:21:19;;;;;;;17.35;9.77;;;21.00;99.90;;;;;;4999696;28;20050;-72
2023/07/24 05:23:45;;;;;;;14.30;9.23;;;21.00;99.90;;;;;;5001349;28;20616;-72
2023/07/24 05:26:10;;;;;;;18.63;11.13;;;20.90;99.90;;;;;;4995033;28;20520;-73
2023/07/24 05:28:36;;;;;;;16.17;9.57;;;21.00;99.90;;;;;;5004450;28;20238;-72
2023/07/24 05:31:03;;;;;;;15.75;9.90;;;21.10;99.90;;;;;;5008298;28;20464;-72
2023/07/24 05:33:30;;;;;;;17.05;9.82;;;21.20;99.90;;;;;;5000847;28;20036;-72
2023/07/24 05:35:59;;;;;;;18.13;10.38;;;21.10;99.90;;;;;;4996669;28;20027;-72
2023/07/24 05:38:25;;;;;;;18.95;11.40;;;20.90;99.90;;;;;;5000954;28;20033;-73
2023/07/24 05:40:58;;;;;;;18.67;11.10;;;20.80;99.90;;;;;;5000134;28;20087;-72
2023/07/24 05:43:24;;;;;;;17.48;10.02;;;21.00;99.90;;;;;;4996856;28;20133;-73
2023/07/24 05:45:51;;;;;;;14.85;9.88;;;21.20;99.90;;;;;;4993461;28;20547;-72
2023/07/24 05:48:17;;;;;;;19.75;10.57;;;21.30;99.90;;;;;;4996571;28;20042;-73
2023/07/24 05:50:43;;;;;;;16.95;9.63;;;21.40;99.90;;;;;;5002033;28;20034;-73
2023/07/24 05:53:08;;;;;;;23.15;11.10;;;21.30;99.90;;;;;;5000490;28;20077;-73
2023/07/24 05:55:34;;;;;;;17.52;10.68;;;21.30;99.90;;;;;;5001210;28;20029;-72
2023/07/24 05:57:59;;;;;;;16.70;10.55;;;21.30;99.90;;;;;;5011399;28;20037;-72
2023/07/24 06:00:25;;;;;;;18.05;11.32;;;21.50;99.90;;;;;;5000474;28;20034;-71
2023/07/24 06:02:51;;;;;;;17.70;10.63;;;21.70;99.90;;;;;;4994656;28;20023;-73
2023/07/24 06:05:16;;;;;;;20.95;11.43;;;21.80;99.90;;;;;;5000452;28;20643;-72
2023/07/24 06:07:42;;;;;;;18.67;11.25;;;21.70;99.90;;;;;;4978101;28;20452;-72
2023/07/24 06:10:08;;;;;;;17.88;10.05;;;21.60;99.90;;;;;;4996337;28;20631;-72
2023/07/24 06:12:33;;;;;;;16.98;10.23;;;21.40;99.90;;;;;;4987228;28;20033;-72
2023/07/24 06:14:59;;;;;;;14.32;9.60;;;21.20;99.90;;;;;;5000214;28;20033;-72
2023/07/24 06:17:25;;;;;;;16.58;10.00;;;21.50;99.90;;;;;;5000554;28;20137;-72
2023/07/24 06:19:50;;;;;;;18.63;10.25;;;21.70;99.90;;;;;;5000252;28;20053;-73
2023/07/24 06:22:16;;;;;;;17.20;10.02;;;21.80;99.90;;;;;;5000602;28;20612;-72
2023/07/24 06:24:42;;;;;;;19.10;12.13;;;21.60;99.90;;;;;;4994030;28;20058;-72
2023/07/24 06:27:07;;;;;;;17.55;10.77;;;21.30;99.90;;;;;;4996299;28;20030;-73
2023/07/24 06:29:33;;;;;;;19.00;11.07;;;21.30;99.90;;;;;;4999852;28;20030;-73
2023/07/24 06:31:59;;;;;;;18.52;11.45;;;21.10;99.90;;;;;;4994941;28;20030;-73
2023/07/24 06:34:24;;;;;;;20.13;10.98;;;21.30;99.90;;;;;;4994095;28;20484;-72
2023/07/24 06:36:50;;;;;;;18.55;10.30;;;21.60;99.90;;;;;;5000607;28;21053;-72
2023/07/24 06:39:16;;;;;;;16.52;10.45;;;21.60;99.90;;;;;;4996368;28;20034;-72
2023/07/24 06:41:42;;;;;;;17.52;11.00;;;21.60;99.90;;;;;;4996545;28;20026;-72
2023/07/24 06:44:08;;;;;;;17.42;10.90;;;21.50;99.90;;;;;;4989706;28;20085;-72
2023/07/24 06:46:33;;;;;;;13.75;10.38;;;21.60;99.90;;;;;;4994802;28;20038;-72
2023/07/24 06:48:59;;;;;;;19.30;11.02;;;21.70;99.90;;;;;;5000143;28;20851;-72
2023/07/24 06:51:24;;;;;;;16.50;10.93;;;21.90;99.90;;;;;;4989540;28;20026;-72
2023/07/24 06:53:50;;;;;;;18.05;10.98;;;22.00;99.90;;;;;;4994959;28;20983;-72
2023/07/24 06:56:16;;;;;;;19.80;10.32;;;22.00;99.90;;;;;;4999074;28;20117;-72
2023/07/24 06:58:41;;;;;;;19.67;11.65;;;22.20;99.90;;;;;;4996941;28;20028;-72
2023/07/24 07:01:07;;;;;;;18.23;10.30;;;22.50;99.90;;;;;;4998113;28;20033;-72
2023/07/24 07:03:36;;;;;;;19.02;9.57;;;22.40;99.90;;;;;;4997501;28;20384;-72
2023/07/24 07:06:02;;;;;;;18.02;11.13;;;22.40;99.90;;;;;;4993873;28;20033;-73
2023/07/24 07:08:29;;;;;;;18.70;10.73;;;22.50;99.90;;;;;;4993436;28;20045;-72
2023/07/24 07:11:00;;;;;;;17.55;11.30;;;22.70;99.90;;;;;;4996312;28;20058;-73
2023/07/24 07:13:26;;;;;;;20.58;11.57;;;22.80;99.90;;;;;;4998455;28;20030;-72
2023/07/24 07:15:52;;;;;;;15.57;10.48;;;22.90;99.90;;;;;;4999577;28;20029;-73
2023/07/24 07:18:18;;;;;;;14.40;10.20;;;23.20;99.90;;;;;;4985181;28;20022;-73
2023/07/24 07:20:51;;;;;;;15.77;10.52;;;23.50;99.90;;;;;;4997105;28;20121;-73
2023/07/24 07:23:17;;;;;;;;;;;23.50;99.90;;;;;;4995765;28;20408;-74
2023/07/24 07:25:45;;;;;;;18.92;10.20;;;23.50;99.90;;;;;;4997218;28;19909;-73
2023/07/24 07:28:11;;;;;;;20.67;11.10;;;23.60;99.90;;;;;;5000787;28;20103;-73
2023/07/24 07:30:37;;;;;;;15.55;10.65;;;24.20;99.90;;;;;;4994148;28;20041;-73
2023/07/24 07:33:04;;;;;;;15.20;10.07;;;24.20;99.90;;;;;;4999383;28;20443;-73
2023/07/24 07:35:29;;;;;;;16.45;9.93;;;24.60;99.90;;;;;;4995603;28;20026;-73
2023/07/24 07:37:55;;;;;;;16.20;10.60;;;24.20;99.90;;;;;;4996014;28;20025;-73
2023/07/24 07:40:23;;;;;;;19.63;11.07;;;23.90;99.90;;;;;;4998137;28;20085;-71
2023/07/24 07:42:49;;;;;;;17.10;10.63;;;23.90;99.90;;;;;;4995868;28;20037;-72
2023/07/24 07:45:14;;;;;;;17.13;11.07;;;25.00;99.90;;;;;;4999758;28;20038;-72
2023/07/24 07:47:40;;;;;;;20.67;12.68;;;24.60;99.90;;;;;;5003699;28;20088;-72
2023/07/24 07:50:06;;;;;;;19.70;11.13;;;24.00;99.90;;;;;;4984458;28;20029;-72
2023/07/24 07:52:32;;;;;;;17.67;11.13;;;23.40;99.90;;;;;;4999323;28;20034;-72
2023/07/24 07:54:58;;;;;;;17.98;10.15;;;23.30;99.90;;;;;;5005563;28;20060;-72
2023/07/24 07:57:23;;;;;;;19.05;11.93;;;23.40;99.90;;;;;;5001264;28;20030;-72
2023/07/24 07:59:49;;;;;;;18.63;10.93;;;23.20;99.90;;;;;;4993122;28;20030;-72
2023/07/24 08:02:15;;;;;;;19.27;10.68;;;23.10;99.90;;;;;;5002295;28;20057;-72
2023/07/24 08:04:41;;;;;;;19.50;11.60;;;23.10;99.90;;;;;;5001384;28;20060;-72
2023/07/24 08:07:09;;;;;;;15.15;10.13;;;23.00;99.90;;;;;;5001426;28;20057;-72
2023/07/24 08:09:37;;;;;;;19.42;11.15;;;22.90;99.90;;;;;;4983590;28;20421;-71
2023/07/24 08:12:04;;;;;;;17.20;11.63;;;24.30;99.90;;;;;;5002396;28;20034;-71
2023/07/24 08:14:30;;;;;;;18.75;12.00;;;24.60;99.90;;;;;;5003392;28;20026;-73
2023/07/24 08:16:56;;;;;;;16.85;10.30;;;25.00;99.90;;;;;;4978748;28;20037;-72
2023/07/24 08:19:22;;;;;;;18.77;10.63;;;25.90;99.90;;;;;;5002693;28;20038;-73
2023/07/24 08:21:48;;;;;;;20.20;11.93;;;26.60;99.90;;;;;;5003564;28;20574;-72
2023/07/24 08:24:14;;;;;;;17.10;10.45;;;26.80;99.90;;;;;;4984736;28;20034;-72
2023/07/24 08:26:39;;;;;;;18.27;9.82;;;27.20;99.90;;;;;;4981692;28;20399;-72
2023/07/24 08:29:05;;;;;;;20.17;11.80;;;26.30;99.90;;;;;;4997766;28;20030;-72
2023/07/24 08:31:31;;;;;;;16.85;11.02;;;25.70;99.90;;;;;;4994401;28;20040;-72
2023/07/24 08:33:57;;;;;;;20.58;10.85;;;25.00;99.90;;;;;;4999143;28;20030;-72
2023/07/24 08:36:22;;;;;;;19.45;12.10;;;24.80;99.90;;;;;;4997675;28;20041;-72
2023/07/24 08:38:48;;;;;;;17.02;11.30;;;24.50;99.90;;;;;;4991514;28;20531;-72
2023/07/24 08:41:14;;;;;;;17.90;12.48;;;24.20;99.90;;;;;;4997204;28;20372;-72
2023/07/24 08:43:42;;;;;;;21.42;11.70;;;23.90;99.90;;;;;;4996772;28;20108;-72
2023/07/24 08:46:09;;;;;;;18.92;10.60;;;23.60;99.90;;;;;;4999593;28;20092;-72
2023/07/24 08:48:37;;;;;;;21.73;10.63;;;23.40;99.90;;;;;;4999965;28;20042;-72
2023/07/24 08:51:07;;;;;;;22.10;12.15;;;23.20;99.90;;;;;;4997258;28;20088;-72
2023/07/24 08:53:35;;;;;;;21.60;13.95;;;22.90;99.90;;;;;;4991284;28;20040;-72
2023/07/24 08:56:02;;;;;;;22.40;12.45;;;22.70;99.90;;;;;;4997157;28;20382;-73
2023/07/24 08:58:28;;;;;;;23.05;12.50;;;22.10;99.90;;;;;;4995793;28;20033;-73
2023/07/24 09:00:56;;;;;;;20.23;11.85;;;21.80;99.90;;;;;;4998900;28;20034;-72
2023/07/24 09:03:21;;;;;;;22.65;13.38;;;21.90;99.90;;;;;;4989820;28;20038;-72
2023/07/24 09:05:47;;;;;;;19.20;12.85;;;21.90;99.90;;;;;;4998951;28;20555;-72
2023/07/24 09:08:13;;;;;;;20.33;13.82;;;21.90;99.90;;;;;;4998906;28;20134;-72
2023/07/24 09:10:39;;;;;;;19.33;11.88;;;21.90;99.90;;;;;;4997572;28;20037;-72
2023/07/24 09:13:07;;;;;;;24.17;12.82;;;22.00;99.90;;;;;;4998569;28;20039;-72
2023/07/24 09:15:44;;;;;;;18.17;12.27;;;22.20;99.90;;;;;;5000895;28;20026;-72
2023/07/24 09:18:10;;;;;;;24.58;12.52;;;22.30;99.90;;;;;;5000124;28;20030;-72
2023/07/24 09:20:40;;;;;;;18.63;11.65;;;22.10;99.90;;;;;;4997302;28;20054;-72
2023/07/24 09:23:08;;;;;;;21.73;12.55;;;22.30;99.90;;;;;;5002256;28;20038;-72
2023/07/24 09:25:35;;;;;;;19.45;12.32;;;22.60;99.90;;;;;;4998317;28;20030;-72
2023/07/24 09:28:08;;;;;;;18.52;12.98;;;22.70;99.90;;;;;;4998620;28;20035;-72
2023/07/24 09:30:34;;;;;;;20.23;12.73;;;22.60;99.90;;;;;;5004747;28;20037;-72
2023/07/24 09:33:00;;;;;;;19.55;12.98;;;22.30;99.90;;;;;;4996192;28;20030;-72
2023/07/24 09:35:28;;;;;;;18.42;11.73;;;22.00;99.90;;;;;;4998621;28;20041;-72
2023/07/24 09:38:13;;;;;;;20.42;12.80;;;22.10;99.90;;;;;;5001702;28;20018;-72
2023/07/24 09:40:45;;;;;;;26.48;14.35;;;22.20;99.90;;;;;;5005090;28;20041;-72
2023/07/24 09:43:21;;;;;;;19.75;14.35;;;21.80;99.90;;;;;;5001300;28;20168;-72
2023/07/24 09:45:49;;;;;;;21.25;14.23;;;21.40;99.90;;;;;;4996933;28;20161;-72
2023/07/24 09:48:16;;;;;;;25.63;13.82;;;21.20;99.90;;;;;;4999484;28;20392;-72
2023/07/24 09:50:45;;;;;;;17.58;13.38;;;21.60;99.90;;;;;;4997561;28;20370;-72
2023/07/24 09:53:31;;;;;;;24.10;14.25;;;22.10;99.90;;;;;;4998940;28;20045;-72
2023/07/24 09:56:01;;;;;;;19.90;13.82;;;22.70;99.90;;;;;;4998971;28;20030;-72
2023/07/24 09:58:27;;;;;;;19.80;14.30;;;23.00;99.90;;;;;;5001489;28;20041;-72
2023/07/24 10:00:53;;;;;;;21.88;14.02;;;23.00;99.90;;;;;;5002218;28;20384;-72
2023/07/24 10:03:21;;;;;;;21.35;12.43;;;22.80;99.90;;;;;;5001138;28;20041;-72
2023/07/24 10:05:48;;;;;;;18.15;13.25;;;22.90;99.90;;;;;;5004981;28;20038;-72
2023/07/24 10:08:18;;;;;;;22.05;13.82;;;23.20;99.90;;;;;;5002357;28;20050;-72
2023/07/24 10:10:45;;;;;;;22.83;14.13;;;23.60;99.90;;;;;;4999397;28;20041;-72
2023/07/24 10:13:14;;;;;;;23.85;13.77;;;23.90;99.90;;;;;;5000394;28;20034;-72
2023/07/24 10:15:42;;;;;;;22.55;14.27;;;23.60;99.90;;;;;;4995118;28;20026;-72
2023/07/24 10:18:09;;;;;;;21.70;15.85;;;23.00;99.90;;;;;;4998183;28;20038;-72
2023/07/24 10:20:36;;;;;;;24.60;14.52;;;22.40;99.90;;;;;;4996388;28;20050;-72
2023/07/24 10:23:02;;;;;;;21.42;15.48;;;22.50;99.90;;;;;;5002045;28;20033;-72
2023/07/24 10:25:37;;;;;;;26.73;14.75;;;22.40;99.90;;;;;;5003076;28;20036;-72
2023/07/24 10:28:06;;;;;;;26.25;14.93;;;22.30;99.90;;;;;;5001157;28;20063;-72
2023/07/24 10:30:32;;;;;;;22.55;14.88;;;22.10;99.90;;;;;;5001745;28;20030;-72
2023/07/24 10:33:07;;;;;;;18.98;14.13;;;22.00;99.90;;;;;;5003108;28;20038;-72
2023/07/24 10:36:03;;;;;;;22.25;14.75;;;21.90;99.90;;;;;;4999441;28;20147;-72
2023/07/24 10:38:36;;;;;;;18.70;13.65;;;22.00;99.90;;;;;;5002161;28;20771;-72
2023/07/24 10:41:03;;;;;;;21.48;13.02;;;21.80;99.90;;;;;;4997657;28;20057;-72
2023/07/24 10:43:39;;;;;;;20.15;14.65;;;21.50;99.90;;;;;;4999782;28;20030;-72
2023/07/24 10:46:04;;;;;;;20.65;13.90;;;21.40;99.90;;;;;;4997965;28;20456;-72
2023/07/24 10:48:30;;;;;;;20.58;12.98;;;21.50;99.90;;;;;;5003043;28;20042;-72
2023/07/24 10:50:56;;;;;;;20.83;12.93;;;21.40;99.90;;;;;;4996303;28;20037;-72
2023/07/24 10:53:22;;;;;;;21.15;13.18;;;21.40;99.90;;;;;;4996946;28;20028;-73
2023/07/24 10:55:50;;;;;;;22.67;14.38;;;21.40;99.90;;;;;;5000061;28;20025;-73
2023/07/24 10:58:15;;;;;;;23.80;13.75;;;21.40;99.90;;;;;;4999577;28;20088;-72
2023/07/24 11:00:43;;;;;;;18.23;13.52;;;21.40;99.90;;;;;;4999454;28;20022;-72
2023/07/24 11:03:10;;;;;;;23.15;15.07;;;21.30;99.90;;;;;;5001316;28;20041;-72
2023/07/24 11:05:46;;;;;;;21.88;13.65;;;21.20;99.90;;;;;;4999479;28;20530;-72
2023/07/24 11:08:16;;;;;;;23.38;14.60;;;21.30;99.90;;;;;;5000367;28;20026;-72
2023/07/24 11:11:08;;;;;;;21.77;13.82;;;21.50;99.90;;;;;;5004975;28;20049;-72
2023/07/24 11:13:34;;;;;;;17.95;11.93;;;21.90;99.90;;;;;;5002522;28;20084;-72
2023/07/24 11:16:07;;;;;;;22.25;13.77;;;22.10;99.90;;;;;;5004635;28;20788;-72
2023/07/24 11:18:43;;;;;;;21.27;12.30;;;22.50;99.90;;;;;;5001280;28;20116;-72
2023/07/24 11:21:09;;;;;;;22.05;15.70;;;22.70;99.90;;;;;;5001312;28;20072;-72
2023/07/24 11:23:35;;;;;;;20.13;15.38;;;22.80;99.90;;;;;;5003879;28;20025;-72
2023/07/24 11:26:05;;;;;;;23.85;17.40;;;22.70;99.90;;;;;;5002873;28;20033;-73
2023/07/24 11:28:39;;;;;;;25.13;17.52;;;22.40;99.90;;;;;;5001291;28;20124;-72
2023/07/24 11:31:05;;;;;;;22.52;16.15;;;22.10;99.90;;;;;;5000778;28;20118;-72
2023/07/24 11:33:31;;;;;;;23.52;17.08;;;21.80;99.90;;;;;;5005409;28;20599;-72
2023/07/24 11:35:57;;;;;;;25.38;15.77;;;21.80;99.90;;;;;;5000466;28;20439;-72
2023/07/24 11:38:23;;;;;;;23.05;15.65;;;21.80;99.90;;;;;;4998516;28;20041;-73
2023/07/24 11:40:50;;;;;;;23.38;14.52;;;21.90;99.90;;;;;;5002404;28;20030;-72
2023/07/24 11:43:21;;;;;;;20.88;12.65;;;21.90;99.90;;;;;;5002654;28;20148;-72
2023/07/24 11:45:53;;;;;;;21.42;13.10;;;21.90;99.90;;;;;;5003463;28;20026;-72
2023/07/24 11:48:24;;;;;;;19.52;11.18;;;22.10;99.90;;;;;;4996002;28;20123;-73
2023/07/24 11:50:53;;;;;;;18.48;12.38;;;22.20;99.90;;;;;;5001614;28;20046;-72
2023/07/24 11:53:29;;;;;;;17.52;11.27;;;22.30;99.90;;;;;;5001373;28;20515;-73
2023/07/24 11:56:00;;;;;;;22.42;12.05;;;22.40;99.90;;;;;;5006364;28;20034;-72
2023/07/24 11:58:28;;;;;;;16.67;11.90;;;22.40;99.90;;;;;;5000823;28;20026;-73
2023/07/24 12:00:55;;;;;;;18.08;11.32;;;22.20;99.90;;;;;;4999033;28;20037;-72
2023/07/24 12:03:22;;;;;;;16.67;11.00;;;22.10;99.90;;;;;;5000381;28;20033;-72
2023/07/24 12:05:47;;;;;;;18.63;13.13;;;22.50;99.90;;;;;;5083837;23;20112;-74
2023/07/24 12:08:17;;;;;;;22.38;15.38;;;22.40;99.90;;;;;;4992603;28;20660;-74
2023/07/24 12:10:43;;;;;;;27.98;18.17;;;22.30;99.90;;;;;;4989359;28;20558;-75
2023/07/24 12:13:09;;;;;;;27.70;17.25;;;22.00;99.90;;;;;;4997759;28;20030;-75
2023/07/24 12:15:35;;;;;;;26.85;18.52;;;22.00;99.90;;;;;;5001676;28;20026;-75
2023/07/24 12:18:02;;;;;;;23.60;17.27;;;22.00;99.90;;;;;;4984982;28;20076;-75
2023/07/24 12:20:28;;;;;;;22.00;16.50;;;22.00;99.90;;;;;;4994311;28;20050;-75
2023/07/24 12:22:54;;;;;;;22.52;15.27;;;22.00;99.90;;;;;;5002864;28;20526;-75
2023/07/24 12:25:20;;;;;;;20.58;15.90;;;22.30;99.90;;;;;;5000031;28;20026;-75
2023/07/24 12:27:47;;;;;;;26.08;16.15;;;22.30;99.90;;;;;;5003853;28;20050;-76
2023/07/24 12:30:13;;;;;;;22.45;16.27;;;22.10;99.90;;;;;;4995551;28;20883;-75